createdAt,value
2018-01-03T00:00:32.134Z,8.38
2018-01-03T00:01:06.141Z,8.32
2018-01-03T00:01:40.048Z,8.73
2018-01-03T00:02:14.003Z,9.75
2018-01-03T00:02:47.874Z,8.90
2018-01-03T00:03:21.807Z,8.75
2018-01-03T00:03:55.766Z,9.35
2018-01-03T00:04:29.650Z,8.10
2018-01-03T00:05:03.570Z,8.75
2018-01-03T00:05:37.619Z,8.57
2018-01-03T00:06:11.492Z,8.93
2018-01-03T00:06:45.357Z,8.45
2018-01-03T00:07:19.216Z,8.02
2018-01-03T00:07:53.109Z,8.30
2018-01-03T00:08:27.193Z,8.10
2018-01-03T00:09:01.201Z,8.10
2018-01-03T00:09:35.213Z,8.48
2018-01-03T00:10:09.225Z,7.78
2018-01-03T00:10:43.258Z,7.87
2018-01-03T00:11:17.125Z,8.15
2018-01-03T00:11:51.319Z,8.30
2018-01-03T00:12:25.344Z,8.02
2018-01-03T00:12:59.296Z,8.43
2018-01-03T00:13:33.242Z,7.15
2018-01-03T00:14:07.380Z,8.63
2018-01-03T00:14:41.336Z,9.00
2018-01-03T00:15:15.272Z,9.00
2018-01-03T00:15:49.195Z,8.20
2018-01-03T00:16:23.125Z,8.20
2018-01-03T00:16:57.186Z,7.55
2018-01-03T00:17:31.077Z,8.43
2018-01-03T00:18:05.158Z,8.48
2018-01-03T00:18:39.096Z,7.75
2018-01-03T00:19:13.041Z,7.62
2018-01-03T00:19:47.002Z,8.48
2018-01-03T00:20:20.964Z,8.15
2018-01-03T00:20:54.867Z,7.50
2018-01-03T00:21:28.778Z,7.75
2018-01-03T00:22:03.339Z,7.68
2018-01-03T00:22:37.308Z,8.52
2018-01-03T00:23:11.242Z,8.38
2018-01-03T00:23:45.160Z,8.70
2018-01-03T00:24:19.149Z,7.80
2018-01-03T00:24:53.062Z,8.25
2018-01-03T00:25:26.982Z,8.32
2018-01-03T00:26:00.962Z,7.90
2018-01-03T00:26:35.053Z,8.27
2018-01-03T00:27:08.962Z,7.90
2018-01-03T00:27:42.947Z,8.40
2018-01-03T00:28:16.874Z,7.43
2018-01-03T00:28:50.749Z,7.10
2018-01-03T00:29:24.794Z,7.75
2018-01-03T00:29:58.789Z,6.78
2018-01-03T00:30:32.870Z,7.07
2018-01-03T00:31:06.815Z,7.32
2018-01-03T00:31:41.008Z,7.43
2018-01-03T00:32:14.941Z,7.25
2018-01-03T00:32:49.036Z,7.78
2018-01-03T00:33:23.039Z,7.95
2018-01-03T00:33:57.049Z,7.25
2018-01-03T00:34:31.247Z,7.90
2018-01-03T00:35:05.166Z,7.28
2018-01-03T00:35:39.168Z,6.68
2018-01-03T00:36:13.576Z,7.60
2018-01-03T00:36:47.605Z,8.30
2018-01-03T00:37:21.538Z,7.12
2018-01-03T00:37:55.427Z,7.55
2018-01-03T00:38:29.388Z,7.40
2018-01-03T00:39:03.343Z,8.15
2018-01-03T00:39:37.329Z,7.30
2018-01-03T00:40:11.351Z,7.15
2018-01-03T00:40:45.229Z,7.97
2018-01-03T00:41:19.140Z,7.82
2018-01-03T00:41:53.025Z,7.35
2018-01-03T00:42:26.934Z,7.85
2018-01-03T00:44:43.178Z,7.45
2018-01-03T00:45:17.765Z,6.68
2018-01-03T00:45:51.660Z,6.93
2018-01-03T00:46:26.147Z,6.15
2018-01-03T00:46:59.989Z,7.05
2018-01-03T00:47:33.904Z,7.55
2018-01-03T00:48:08.605Z,6.90
2018-01-03T00:48:42.464Z,7.45
2018-01-03T00:49:16.359Z,6.50
2018-01-03T00:49:50.248Z,6.53
2018-01-03T00:50:24.168Z,8.30
2018-01-03T00:50:58.789Z,6.70
2018-01-03T00:51:32.740Z,7.37
2018-01-03T00:52:06.658Z,6.57
2018-01-03T00:52:40.540Z,7.60
2018-01-03T00:53:15.217Z,6.07
2018-01-03T00:53:49.159Z,6.68
2018-01-03T00:54:23.073Z,6.97
2018-01-03T00:54:57.052Z,7.03
2018-01-03T00:55:31.018Z,6.80
2018-01-03T00:56:05.000Z,6.90
2018-01-03T00:56:38.958Z,6.82
2018-01-03T00:57:13.657Z,7.75
2018-01-03T00:57:47.612Z,7.10
2018-01-03T00:58:21.515Z,6.22
2018-01-03T00:58:59.292Z,7.18
2018-01-03T00:59:33.231Z,6.55
2018-01-03T01:00:07.230Z,7.00
2018-01-03T01:00:41.221Z,6.85
2018-01-03T01:01:15.098Z,5.82
2018-01-03T01:01:49.121Z,6.10
2018-01-03T01:02:23.118Z,7.97
2018-01-03T01:02:56.969Z,6.12
2018-01-03T01:03:30.960Z,6.90
2018-01-03T01:04:05.525Z,6.87
2018-01-03T01:04:39.520Z,6.28
2018-01-03T01:05:13.481Z,6.75
2018-01-03T01:05:47.460Z,6.25
2018-01-03T01:06:21.410Z,6.22
2018-01-03T01:06:56.087Z,6.40
2018-01-03T01:07:29.963Z,6.47
2018-01-03T01:08:03.844Z,6.45
2018-01-03T01:08:37.753Z,5.00
2018-01-03T01:09:11.695Z,6.20
2018-01-03T01:09:45.572Z,5.85
2018-01-03T01:10:19.481Z,6.80
2018-01-03T01:10:53.395Z,6.62
2018-01-03T01:11:27.253Z,7.40
2018-01-03T01:12:01.130Z,6.87
2018-01-03T01:12:35.094Z,6.70
2018-01-03T01:13:08.996Z,6.57
2018-01-03T01:13:42.891Z,5.40
2018-01-03T01:14:16.762Z,5.60
2018-01-03T01:14:50.737Z,8.00
2018-01-03T01:15:24.642Z,6.35
2018-01-03T01:15:58.551Z,7.20
2018-01-03T01:16:32.452Z,6.65
2018-01-03T01:17:06.301Z,7.95
2018-01-03T01:17:40.260Z,5.90
2018-01-03T01:18:14.221Z,6.20
2018-01-03T01:18:48.136Z,6.15
2018-01-03T01:19:22.050Z,6.30
2018-01-03T01:19:55.947Z,6.45
2018-01-03T01:20:29.885Z,6.45
2018-01-03T01:21:04.090Z,6.30
2018-01-03T01:21:38.015Z,6.05
2018-01-03T01:22:11.886Z,6.03
2018-01-03T01:22:45.829Z,6.43
2018-01-03T01:23:19.783Z,5.25
2018-01-03T01:23:53.650Z,6.43
2018-01-03T01:24:27.596Z,6.00
2018-01-03T01:25:01.513Z,6.90
2018-01-03T01:25:35.400Z,5.60
2018-01-03T01:26:09.305Z,7.10
2018-01-03T01:26:43.190Z,6.18
2018-01-03T01:27:17.115Z,7.65
2018-01-03T01:27:50.997Z,5.20
2018-01-03T01:28:24.884Z,5.97
2018-01-03T01:28:58.873Z,5.82
2018-01-03T01:29:32.906Z,5.95
2018-01-03T01:30:06.866Z,6.50
2018-01-03T01:30:40.770Z,6.70
2018-01-03T01:31:14.650Z,5.75
2018-01-03T01:31:48.576Z,6.07
2018-01-03T01:32:22.538Z,6.87
2018-01-03T01:32:56.434Z,5.90
2018-01-03T01:33:30.398Z,6.07
2018-01-03T01:34:04.388Z,5.72
2018-01-03T01:34:38.343Z,6.35
2018-01-03T01:35:12.383Z,5.57
2018-01-03T01:35:46.325Z,5.07
2018-01-03T01:36:27.275Z,6.57
2018-01-03T01:37:01.178Z,5.60
2018-01-03T01:37:36.654Z,6.25
2018-01-03T01:38:10.548Z,6.03
2018-01-03T01:38:44.464Z,6.37
2018-01-03T01:39:18.384Z,6.15
2018-01-03T01:39:52.298Z,5.45
2018-01-03T01:40:26.217Z,6.10
2018-01-03T01:41:00.185Z,6.37
2018-01-03T01:41:34.062Z,6.25
2018-01-03T01:42:08.092Z,6.82
2018-01-03T01:42:42.102Z,6.35
2018-01-03T01:43:16.097Z,6.00
2018-01-03T01:43:50.020Z,6.50
2018-01-03T01:44:24.107Z,5.95
2018-01-03T01:44:58.140Z,5.40
2018-01-03T01:45:32.121Z,5.72
2018-01-03T01:46:06.088Z,6.12
2018-01-03T01:46:39.993Z,6.10
2018-01-03T01:47:14.008Z,5.70
2018-01-03T01:47:47.902Z,5.70
2018-01-03T01:48:21.876Z,6.30
2018-01-03T01:49:01.578Z,5.65
2018-01-03T01:49:35.567Z,5.95
2018-01-03T01:50:09.472Z,5.55
2018-01-03T01:50:43.360Z,5.95
2018-01-03T01:51:17.303Z,5.60
2018-01-03T01:51:51.174Z,5.53
2018-01-03T01:52:25.066Z,6.05
2018-01-03T01:52:58.985Z,5.62
2018-01-03T01:53:32.926Z,5.12
2018-01-03T01:54:07.064Z,6.18
2018-01-03T01:54:40.963Z,5.50
2018-01-03T01:55:14.860Z,6.15
2018-01-03T01:55:48.727Z,6.32
2018-01-03T01:56:22.666Z,6.65
2018-01-03T01:56:56.561Z,6.10
2018-01-03T01:57:30.548Z,6.00
2018-01-03T01:58:04.404Z,6.43
2018-01-03T01:58:38.277Z,5.50
2018-01-03T01:59:12.277Z,6.35
2018-01-03T01:59:46.286Z,5.78
2018-01-03T02:00:20.292Z,5.70
2018-01-03T02:00:54.514Z,5.53
2018-01-03T02:01:28.533Z,5.90
2018-01-03T02:02:02.574Z,5.45
2018-01-03T02:02:36.473Z,6.03
2018-01-03T02:03:10.423Z,6.35
2018-01-03T02:03:44.321Z,6.00
2018-01-03T02:04:18.250Z,6.05
2018-01-03T02:04:52.131Z,6.30
2018-01-03T02:16:05.724Z,5.37
2018-01-03T02:16:45.686Z,5.30
2018-01-03T02:17:29.844Z,5.20
2018-01-03T02:18:18.653Z,5.25
2018-01-03T02:20:10.471Z,5.85
2018-01-03T02:20:44.421Z,6.22
2018-01-03T02:21:18.332Z,4.70
2018-01-03T02:21:52.222Z,5.40
2018-01-03T02:26:20.896Z,6.05
2018-01-03T02:26:56.759Z,5.50
2018-01-03T02:27:35.184Z,5.18
2018-01-03T02:28:17.405Z,4.57
2018-01-03T02:29:18.715Z,4.97
2018-01-03T02:30:19.937Z,4.82
2018-01-03T02:51:45.356Z,4.50
2018-01-03T02:55:06.115Z,3.95
2018-01-03T02:56:45.781Z,4.85
2018-01-03T02:57:19.721Z,4.28
2018-01-03T02:57:53.672Z,4.45
2018-01-03T02:58:50.502Z,3.83
2018-01-03T03:00:15.317Z,4.25
2018-01-03T03:00:49.353Z,4.15
2018-01-03T03:01:23.340Z,4.18
2018-01-03T03:01:57.512Z,4.78
2018-01-03T03:02:31.416Z,5.03
2018-01-03T03:03:05.347Z,4.40
2018-01-03T03:03:40.126Z,4.20
2018-01-03T03:04:14.187Z,4.30
2018-01-03T03:04:48.056Z,5.07
2018-01-03T03:05:21.994Z,4.45
2018-01-03T03:05:55.904Z,4.95
2018-01-03T03:06:29.833Z,4.00
2018-01-03T03:07:03.820Z,4.30
2018-01-03T03:07:37.819Z,4.05
2018-01-03T03:09:15.405Z,3.70
2018-01-03T03:09:49.364Z,3.50
2018-01-03T03:10:23.436Z,5.03
2018-01-03T03:10:57.358Z,4.50
2018-01-03T03:11:31.419Z,4.65
2018-01-03T03:12:05.360Z,5.00
2018-01-03T03:12:39.388Z,4.53
2018-01-03T03:13:13.356Z,4.45
2018-01-03T03:13:47.381Z,4.45
2018-01-03T03:14:21.334Z,5.30
2018-01-03T03:14:55.226Z,4.30
2018-01-03T03:15:29.096Z,5.25
2018-01-03T03:16:03.133Z,3.97
2018-01-03T03:16:37.026Z,4.12
2018-01-03T03:17:10.956Z,5.43
2018-01-03T03:17:44.848Z,4.18
2018-01-03T03:18:18.710Z,3.92
2018-01-03T03:18:52.644Z,3.85
2018-01-03T03:19:26.747Z,4.87
2018-01-03T03:20:00.688Z,3.95
2018-01-03T03:20:34.879Z,3.87
2018-01-03T03:21:08.755Z,4.82
2018-01-03T03:21:42.713Z,4.75
2018-01-03T03:22:16.707Z,3.90
2018-01-03T03:22:50.822Z,3.70
2018-01-03T03:23:24.824Z,3.95
2018-01-03T03:23:58.806Z,4.80
2018-01-03T03:24:32.781Z,4.18
2018-01-03T03:25:06.704Z,4.28
2018-01-03T03:25:40.689Z,4.65
2018-01-03T03:26:14.550Z,4.00
2018-01-03T03:26:48.447Z,3.90
2018-01-03T03:27:22.341Z,4.65
2018-01-03T03:27:56.333Z,3.33
2018-01-03T03:28:30.268Z,4.37
2018-01-03T03:29:04.167Z,3.95
2018-01-03T03:29:38.048Z,4.10
2018-01-03T03:30:11.929Z,4.05
2018-01-03T03:30:45.813Z,3.90
2018-01-03T03:31:19.673Z,4.40
2018-01-03T03:31:53.558Z,3.60
2018-01-03T03:32:27.479Z,4.47
2018-01-03T03:33:01.516Z,3.62
2018-01-03T03:33:35.436Z,4.03
2018-01-03T03:34:09.488Z,4.22
2018-01-03T03:34:43.375Z,4.25
2018-01-03T03:35:17.401Z,4.25
2018-01-03T03:35:51.400Z,4.40
2018-01-03T03:36:25.383Z,3.65
2018-01-03T03:36:59.267Z,4.28
2018-01-03T03:37:33.252Z,4.00
2018-01-03T03:38:07.204Z,4.40
2018-01-03T03:38:41.141Z,3.95
2018-01-03T03:39:15.049Z,3.85
2018-01-03T03:39:48.965Z,4.10
2018-01-03T03:40:22.846Z,4.28
2018-01-03T03:40:57.068Z,4.75
2018-01-03T03:41:30.929Z,3.72
2018-01-03T03:42:04.819Z,3.50
2018-01-03T03:42:38.810Z,4.35
2018-01-03T03:43:12.733Z,5.05
2018-01-03T03:43:46.773Z,4.47
2018-01-03T03:44:20.628Z,3.67
2018-01-03T03:44:54.886Z,4.43
2018-01-03T03:45:28.835Z,4.70
2018-01-03T03:46:02.752Z,3.95
2018-01-03T03:46:36.733Z,4.05
2018-01-03T03:47:10.712Z,4.68
2018-01-03T03:47:44.597Z,4.07
2018-01-03T03:48:18.525Z,4.12
2018-01-03T03:48:52.543Z,3.95
2018-01-03T03:49:26.447Z,3.58
2018-01-03T03:50:00.343Z,4.03
2018-01-03T03:50:34.450Z,3.50
2018-01-03T03:51:08.351Z,4.65
2018-01-03T03:51:42.434Z,4.05
2018-01-03T03:52:16.409Z,2.92
2018-01-03T03:52:50.272Z,3.85
2018-01-03T03:53:24.145Z,3.60
2018-01-03T03:53:58.071Z,4.00
2018-01-03T03:54:32.035Z,4.30
2018-01-03T03:55:05.904Z,3.72
2018-01-03T03:55:39.788Z,3.67
2018-01-03T03:56:13.719Z,4.10
2018-01-03T03:56:47.663Z,3.45
2018-01-03T03:57:21.557Z,3.65
2018-01-03T03:57:55.464Z,3.78
2018-01-03T03:58:29.321Z,3.33
2018-01-03T03:59:03.261Z,3.40
2018-01-03T03:59:37.169Z,3.70
2018-01-03T04:00:11.093Z,3.78
2018-01-03T04:00:44.956Z,4.28
2018-01-03T04:01:19.016Z,3.70
2018-01-03T04:01:52.911Z,3.15
2018-01-03T04:02:26.800Z,3.22
2018-01-03T04:03:00.661Z,3.35
2018-01-03T04:03:34.604Z,3.78
2018-01-03T04:04:08.469Z,3.60
2018-01-03T04:04:42.406Z,3.78
2018-01-03T04:05:16.322Z,3.30
2018-01-03T04:05:50.234Z,3.67
2018-01-03T04:06:24.132Z,3.33
2018-01-03T04:06:58.287Z,3.70
2018-01-03T04:07:32.167Z,3.30
2018-01-03T04:08:06.134Z,3.45
2018-01-03T04:08:40.012Z,3.72
2018-01-03T04:09:14.282Z,3.30
2018-01-03T04:09:48.176Z,3.50
2018-01-03T04:10:22.052Z,3.47
2018-01-03T04:10:56.017Z,4.12
2018-01-03T04:11:29.944Z,3.70
2018-01-03T04:12:03.919Z,3.37
2018-01-03T04:12:37.818Z,3.87
2018-01-03T04:13:11.695Z,3.75
2018-01-03T04:13:45.738Z,3.42
2018-01-03T04:14:19.693Z,3.80
2018-01-03T04:14:53.590Z,3.40
2018-01-03T04:15:27.500Z,3.22
2018-01-03T04:16:01.360Z,3.42
2018-01-03T04:16:35.344Z,3.37
2018-01-03T04:17:09.293Z,3.78
2018-01-03T04:17:43.214Z,3.60
2018-01-03T04:18:17.275Z,3.28
2018-01-03T04:18:51.201Z,3.08
2018-01-03T04:19:25.125Z,3.83
2018-01-03T04:19:59.038Z,3.90
2018-01-03T04:20:32.932Z,3.70
2018-01-03T04:21:06.820Z,3.33
2018-01-03T04:21:40.777Z,3.58
2018-01-03T04:22:14.780Z,3.37
2018-01-03T04:22:48.657Z,3.83
2018-01-03T04:23:22.652Z,3.60
2018-01-03T04:23:56.664Z,4.18
2018-01-03T04:24:30.568Z,3.90
2018-01-03T04:25:04.473Z,3.95
2018-01-03T04:25:38.391Z,3.37
2018-01-03T04:26:12.313Z,4.03
2018-01-03T04:26:46.274Z,3.67
2018-01-03T04:27:20.181Z,3.90
2018-01-03T04:27:54.071Z,3.92
2018-01-03T04:28:28.043Z,3.70
2018-01-03T04:29:02.267Z,3.95
2018-01-03T04:29:36.143Z,4.10
2018-01-03T04:30:10.039Z,3.37
2018-01-03T04:30:43.933Z,3.58
2018-01-03T04:31:17.820Z,4.60
2018-01-03T04:31:51.721Z,3.95
2018-01-03T04:32:25.620Z,4.03
2018-01-03T04:32:59.557Z,4.90
2018-01-03T04:33:33.432Z,3.83
2018-01-03T04:34:07.417Z,3.97
2018-01-03T04:34:41.289Z,3.85
2018-01-03T04:35:15.173Z,3.75
2018-01-03T04:35:49.101Z,3.12
2018-01-03T04:36:22.988Z,3.60
2018-01-03T04:36:56.862Z,4.28
2018-01-03T04:37:30.928Z,3.42
2018-01-03T04:38:04.892Z,3.62
2018-01-03T04:38:38.794Z,3.50
2018-01-03T04:39:12.741Z,4.00
2018-01-03T04:39:46.741Z,3.78
2018-01-03T04:40:20.693Z,3.50
2018-01-03T04:40:54.581Z,3.78
2018-01-03T04:41:28.462Z,3.50
2018-01-03T04:42:02.612Z,3.62
2018-01-03T04:42:36.585Z,3.53
2018-01-03T04:43:10.451Z,3.75
2018-01-03T04:43:44.348Z,3.40
2018-01-03T04:44:18.226Z,4.15
2018-01-03T04:44:52.185Z,3.80
2018-01-03T04:45:26.239Z,3.35
2018-01-03T04:46:00.130Z,3.53
2018-01-03T04:46:34.654Z,3.97
2018-01-03T04:47:08.637Z,4.28
2018-01-03T04:47:42.559Z,3.72
2018-01-03T04:48:16.439Z,3.50
2018-01-03T04:48:50.304Z,3.20
2018-01-03T04:49:24.190Z,3.22
2018-01-03T04:49:58.070Z,3.15
2018-01-03T04:50:32.041Z,3.78
2018-01-03T04:51:06.064Z,3.28
2018-01-03T04:51:40.064Z,3.85
2018-01-03T04:52:13.954Z,4.20
2018-01-03T04:52:47.834Z,3.72
2018-01-03T04:53:21.762Z,4.12
2018-01-03T04:53:55.706Z,3.33
2018-01-03T04:54:29.681Z,3.75
2018-01-03T04:55:03.535Z,4.07
2018-01-03T04:55:37.553Z,3.03
2018-01-03T04:56:11.472Z,3.87
2018-01-03T04:56:45.363Z,3.65
2018-01-03T04:57:19.474Z,3.62
2018-01-03T04:57:53.638Z,3.37
2018-01-03T04:58:27.561Z,3.40
2018-01-03T04:59:01.443Z,3.50
2018-01-03T04:59:35.415Z,4.25
2018-01-03T05:00:09.335Z,3.30
2018-01-03T05:00:43.234Z,3.83
2018-01-03T05:01:17.387Z,3.55
2018-01-03T05:01:51.276Z,3.65
2018-01-03T05:02:25.317Z,3.67
2018-01-03T05:02:59.182Z,3.60
2018-01-03T05:03:33.058Z,3.37
2018-01-03T05:04:07.094Z,3.70
2018-01-03T05:04:40.993Z,3.90
2018-01-03T05:05:14.860Z,3.72
2018-01-03T05:05:48.741Z,3.53
2018-01-03T05:06:22.628Z,3.72
2018-01-03T05:06:56.545Z,4.30
2018-01-03T05:07:30.552Z,4.22
2018-01-03T05:08:05.165Z,4.12
2018-01-03T05:08:39.047Z,4.15
2018-01-03T05:09:12.923Z,3.60
2018-01-03T05:09:46.842Z,3.50
2018-01-03T05:10:20.817Z,3.25
2018-01-03T05:10:55.116Z,3.60
2018-01-03T05:11:29.055Z,3.87
2018-01-03T05:12:03.074Z,3.40
2018-01-03T05:12:36.989Z,3.78
2018-01-03T05:13:10.866Z,3.83
2018-01-03T05:13:44.734Z,4.10
2018-01-03T05:14:18.634Z,3.08
2018-01-03T05:14:52.557Z,2.80
2018-01-03T05:15:26.472Z,4.28
2018-01-03T05:16:00.564Z,4.20
2018-01-03T05:16:34.430Z,3.60
2018-01-03T05:17:08.453Z,3.97
2018-01-03T05:17:42.396Z,4.28
2018-01-03T05:18:16.281Z,3.80
2018-01-03T05:18:50.215Z,3.67
2018-01-03T05:19:24.127Z,3.87
2018-01-03T05:19:58.087Z,3.72
2018-01-03T05:20:31.986Z,3.50
2018-01-03T05:21:05.995Z,4.72
2018-01-03T05:23:53.852Z,3.90
2018-01-03T05:24:27.951Z,3.70
2018-01-03T05:25:03.878Z,3.30
2018-01-03T05:25:48.487Z,3.50
2018-01-03T05:26:23.928Z,3.47
2018-01-03T05:26:57.909Z,3.70
2018-01-03T05:27:31.884Z,3.70
2018-01-03T05:28:05.911Z,3.22
2018-01-03T05:28:39.871Z,3.40
2018-01-03T05:29:13.917Z,3.40
2018-01-03T05:29:48.132Z,3.55
2018-01-03T05:30:22.019Z,3.35
2018-01-03T05:30:55.948Z,3.87
2018-01-03T05:31:29.930Z,3.65
2018-01-03T05:32:03.896Z,3.55
2018-01-03T05:32:37.869Z,3.83
2018-01-03T05:33:11.797Z,4.28
2018-01-03T05:33:45.705Z,4.05
2018-01-03T05:34:19.628Z,3.60
2018-01-03T05:34:53.518Z,3.85
2018-01-03T05:35:27.478Z,3.42
2018-01-03T05:36:01.435Z,3.30
2018-01-03T05:36:35.373Z,3.65
2018-01-03T05:37:09.267Z,3.47
2018-01-03T05:37:43.298Z,3.97
2018-01-03T05:38:17.175Z,3.58
2018-01-03T05:38:51.074Z,3.33
2018-01-03T05:39:24.967Z,4.07
2018-01-03T05:39:58.859Z,3.62
2018-01-03T05:40:33.023Z,3.70
2018-01-03T05:41:07.085Z,4.18
2018-01-03T05:41:41.118Z,3.80
2018-01-03T05:42:15.017Z,3.80
2018-01-03T05:42:48.880Z,4.00
2018-01-03T05:43:22.969Z,3.87
2018-01-03T05:43:56.900Z,3.97
2018-01-03T05:44:30.881Z,3.75
2018-01-03T05:45:04.844Z,3.35
2018-01-03T05:45:38.898Z,3.40
2018-01-03T05:46:12.868Z,4.57
2018-01-03T05:46:46.923Z,3.60
2018-01-03T05:47:20.784Z,3.33
2018-01-03T05:47:54.813Z,4.93
2018-01-03T05:48:28.708Z,3.83
2018-01-03T05:49:02.599Z,3.10
2018-01-03T05:49:36.561Z,4.30
2018-01-03T05:50:10.455Z,4.10
2018-01-03T05:50:44.326Z,3.62
2018-01-03T05:51:18.292Z,3.97
2018-01-03T05:51:52.136Z,4.20
2018-01-03T05:52:26.045Z,3.78
2018-01-03T05:52:59.916Z,3.70
2018-01-03T05:53:33.778Z,3.40
2018-01-03T05:54:07.732Z,3.60
2018-01-03T05:54:41.853Z,4.05
2018-01-03T05:55:15.718Z,3.78
2018-01-03T05:55:49.651Z,3.80
2018-01-03T05:56:23.641Z,3.95
2018-01-03T05:56:57.636Z,3.62
2018-01-03T05:57:31.569Z,3.35
2018-01-03T05:58:05.489Z,3.55
2018-01-03T05:58:39.648Z,4.05
2018-01-03T05:59:13.568Z,3.45
2018-01-03T05:59:47.535Z,4.37
2018-01-03T06:00:21.525Z,4.82
2018-01-03T06:00:55.413Z,4.75
2018-01-03T06:01:29.278Z,4.40
2018-01-03T06:02:03.264Z,3.85
2018-01-03T06:02:37.126Z,3.62
2018-01-03T06:03:11.018Z,3.58
2018-01-03T06:03:44.924Z,3.83
2018-01-03T06:04:18.841Z,3.83
2018-01-03T06:04:52.800Z,4.40
2018-01-03T06:05:26.763Z,3.83
2018-01-03T06:06:00.644Z,3.80
2018-01-03T06:06:34.563Z,4.20
2018-01-03T06:07:08.522Z,4.10
2018-01-03T06:07:42.561Z,4.97
2018-01-03T06:08:16.460Z,3.92
2018-01-03T06:08:50.352Z,3.95
2018-01-03T06:09:24.243Z,4.25
2018-01-03T06:09:58.173Z,4.50
2018-01-03T06:10:32.076Z,4.10
2018-01-03T06:11:05.989Z,4.85
2018-01-03T06:11:39.920Z,4.37
2018-01-03T06:12:13.885Z,4.12
2018-01-03T06:12:47.824Z,4.53
2018-01-03T06:13:21.881Z,4.87
2018-01-03T06:13:55.766Z,4.00
2018-01-03T06:14:29.699Z,4.28
2018-01-03T06:15:03.642Z,3.97
2018-01-03T06:15:37.552Z,3.87
2018-01-03T06:16:11.537Z,4.55
2018-01-03T06:16:45.407Z,4.20
2018-01-03T06:17:19.288Z,4.78
2018-01-03T06:17:53.328Z,3.70
2018-01-03T06:18:27.599Z,4.65
2018-01-03T06:19:01.498Z,4.45
2018-01-03T06:19:35.366Z,4.95
2018-01-03T06:20:09.442Z,4.20
2018-01-03T06:20:43.334Z,3.67
2018-01-03T06:21:17.421Z,4.68
2018-01-03T06:21:51.377Z,4.12
2018-01-03T06:22:25.304Z,4.70
2018-01-03T06:22:59.173Z,5.60
2018-01-03T06:23:33.138Z,5.35
2018-01-03T06:24:06.981Z,4.20
2018-01-03T06:24:40.940Z,3.75
2018-01-03T06:25:14.837Z,4.72
2018-01-03T06:25:48.742Z,4.00
2018-01-03T06:26:22.621Z,4.25
2018-01-03T06:26:56.563Z,4.70
2018-01-03T06:27:30.595Z,4.32
2018-01-03T06:28:04.514Z,5.35
2018-01-03T06:28:38.431Z,4.65
2018-01-03T06:29:12.364Z,4.68
2018-01-03T06:29:47.458Z,4.18
2018-01-03T06:30:21.436Z,4.55
2018-01-03T06:30:55.417Z,5.03
2018-01-03T06:31:29.532Z,5.20
2018-01-03T06:32:03.432Z,5.25
2018-01-03T06:32:37.340Z,4.90
2018-01-03T06:33:11.272Z,4.85
2018-01-03T06:33:45.242Z,4.47
2018-01-03T06:34:19.303Z,4.40
2018-01-03T06:34:53.454Z,5.60
2018-01-03T06:35:27.470Z,5.85
2018-01-03T06:36:01.564Z,4.32
2018-01-03T06:36:35.551Z,5.05
2018-01-03T06:37:09.586Z,5.03
2018-01-03T06:37:43.617Z,5.53
2018-01-03T06:38:17.530Z,4.45
2018-01-03T06:38:51.391Z,4.68
2018-01-03T06:39:25.715Z,4.28
2018-01-03T06:39:59.649Z,4.20
2018-01-03T06:40:36.036Z,4.22
2018-01-03T06:41:09.977Z,3.62
2018-01-03T06:41:43.888Z,3.80
2018-01-03T06:42:17.775Z,4.80
2018-01-03T06:42:52.556Z,3.25
2018-01-03T06:43:26.461Z,4.10
2018-01-03T06:44:00.428Z,4.40
2018-01-03T06:44:34.427Z,4.70
2018-01-03T06:45:08.426Z,4.80
2018-01-03T06:45:42.547Z,4.05
2018-01-03T06:46:16.622Z,4.75
2018-01-03T06:46:50.481Z,4.40
2018-01-03T06:47:24.366Z,4.20
2018-01-03T06:47:58.269Z,3.92
2018-01-03T06:48:32.600Z,4.15
2018-01-03T06:49:06.569Z,4.05
2018-01-03T06:49:40.620Z,4.00
2018-01-03T06:50:14.539Z,3.90
2018-01-03T06:50:48.450Z,3.20
2018-01-03T06:51:22.413Z,4.55
2018-01-03T06:51:56.286Z,4.18
2018-01-03T06:52:30.183Z,4.12
2018-01-03T06:53:04.078Z,4.32
2018-01-03T06:53:38.156Z,4.75
2018-01-03T06:54:12.074Z,3.85
2018-01-03T06:54:46.129Z,4.00
2018-01-03T06:55:20.054Z,4.35
2018-01-03T06:55:53.994Z,4.80
2018-01-03T06:56:27.887Z,3.90
2018-01-03T06:57:02.103Z,3.50
2018-01-03T06:57:36.035Z,4.12
2018-01-03T06:58:10.044Z,4.15
2018-01-03T06:58:44.145Z,4.37
2018-01-03T06:59:18.038Z,3.78
2018-01-03T06:59:51.967Z,4.28
2018-01-03T07:00:25.836Z,4.70
2018-01-03T07:00:59.752Z,4.85
2018-01-03T07:01:33.724Z,4.82
2018-01-03T07:02:07.608Z,4.45
2018-01-03T07:02:41.618Z,5.05
2018-01-03T07:03:18.236Z,4.53
2018-01-03T07:05:32.655Z,4.10
2018-01-03T07:06:06.774Z,3.72
2018-01-03T07:06:40.770Z,3.87
2018-01-03T07:07:18.124Z,4.50
2018-01-03T07:07:52.654Z,5.18
2018-01-03T07:08:30.197Z,3.72
2018-01-03T07:09:08.245Z,4.10
2018-01-03T07:09:43.520Z,4.35
2018-01-03T07:10:18.336Z,4.22
2018-01-03T07:10:54.182Z,4.80
2018-01-03T07:12:12.772Z,4.22
2018-01-03T07:12:52.089Z,3.83
2018-01-03T07:13:28.010Z,3.80
2018-01-03T07:14:05.578Z,3.55
2018-01-03T07:14:46.234Z,3.70
2018-01-03T07:15:24.677Z,3.65
2018-01-03T07:16:07.832Z,3.87
2018-01-03T07:16:41.741Z,3.75
2018-01-03T07:17:27.158Z,3.72
2018-01-03T07:18:03.929Z,3.83
2018-01-03T07:18:39.046Z,3.40
2018-01-03T07:19:13.684Z,4.15
2018-01-03T07:19:52.547Z,3.83
2018-01-03T07:20:30.047Z,3.22
2018-01-03T07:21:06.244Z,3.60
2018-01-03T07:21:41.072Z,4.15
2018-01-03T07:22:15.016Z,3.30
2018-01-03T07:22:49.573Z,3.40
2018-01-03T07:23:23.445Z,3.25
2018-01-03T07:23:59.815Z,4.25
2018-01-03T07:24:34.580Z,3.58
2018-01-03T07:25:09.638Z,4.00
2018-01-03T07:25:47.001Z,3.83
2018-01-03T07:26:21.666Z,4.35
2018-01-03T07:26:59.380Z,3.58
2018-01-03T07:27:33.707Z,4.00
2018-01-03T07:28:09.006Z,3.70
2018-01-03T07:28:42.969Z,3.50
2018-01-03T07:29:17.514Z,3.92
2018-01-03T07:29:52.207Z,3.10
2018-01-03T07:30:27.668Z,3.50
2018-01-03T07:31:02.345Z,3.58
2018-01-03T07:31:38.541Z,3.17
2018-01-03T07:32:14.638Z,3.33
2018-01-03T07:32:48.735Z,3.60
2018-01-03T07:33:24.664Z,3.37
2018-01-03T07:33:59.353Z,3.33
2018-01-03T07:34:34.704Z,3.25
2018-01-03T07:35:08.719Z,3.97
2018-01-03T07:35:43.359Z,3.25
2018-01-03T07:36:18.280Z,3.55
2018-01-03T07:36:53.454Z,3.80
2018-01-03T07:37:27.376Z,3.10
2018-01-03T07:38:02.681Z,3.72
2018-01-03T07:39:18.422Z,3.53
2018-01-03T07:39:53.950Z,3.35
2018-01-03T07:40:28.608Z,3.72
2018-01-03T07:41:04.073Z,3.37
2018-01-03T07:41:42.175Z,4.30
2018-01-03T07:42:16.298Z,4.00
2018-01-03T07:42:51.809Z,3.65
2018-01-03T07:43:28.679Z,5.22
2018-01-03T07:44:03.950Z,5.55
2018-01-03T07:44:38.611Z,5.43
2018-01-03T07:45:16.115Z,7.75
2018-01-03T07:45:51.832Z,9.88
2018-01-03T07:46:27.611Z,6.75
2018-01-03T07:47:01.998Z,3.70
2018-01-03T07:47:40.739Z,3.80
2018-01-03T07:48:16.224Z,4.00
2018-01-03T07:48:52.503Z,4.60
2018-01-03T07:49:30.214Z,4.22
2018-01-03T07:50:04.217Z,3.58
2018-01-03T07:51:18.177Z,3.20
2018-01-03T07:51:52.092Z,4.00
2018-01-03T07:52:27.707Z,3.37
2018-01-03T07:53:02.843Z,3.10
2018-01-03T07:53:37.470Z,4.00
2018-01-03T07:54:19.264Z,4.10
2018-01-03T07:54:54.113Z,3.08
2018-01-03T07:55:28.776Z,3.08
2018-01-03T07:56:06.402Z,3.30
2018-01-03T07:56:41.987Z,3.78
2018-01-03T07:57:17.132Z,3.10
2018-01-03T07:57:51.807Z,3.05
2018-01-03T07:58:26.701Z,3.30
2018-01-03T07:59:00.957Z,3.25
2018-01-03T07:59:36.777Z,3.67
2018-01-03T08:00:11.486Z,3.37
2018-01-03T08:00:45.932Z,2.80
2018-01-03T08:01:19.908Z,3.50
2018-01-03T08:01:53.856Z,3.25
2018-01-03T08:02:27.739Z,3.15
2018-01-03T08:03:01.637Z,3.10
2018-01-03T08:03:35.541Z,2.72
2018-01-03T08:04:09.417Z,3.03
2018-01-03T08:04:43.361Z,3.20
2018-01-03T08:05:17.280Z,3.72
2018-01-03T08:05:51.159Z,2.70
2018-01-03T08:06:25.296Z,3.08
2018-01-03T08:06:59.243Z,3.25
2018-01-03T08:07:33.132Z,2.75
2018-01-03T08:08:07.045Z,2.90
2018-01-03T08:08:40.905Z,2.90
2018-01-03T08:09:14.777Z,3.05
2018-01-03T08:09:48.694Z,2.50
2018-01-03T08:10:22.561Z,3.50
2018-01-03T08:10:56.472Z,2.67
2018-01-03T08:11:30.401Z,2.85
2018-01-03T08:12:04.301Z,3.20
2018-01-03T08:12:38.157Z,2.90
2018-01-03T08:13:12.076Z,2.90
2018-01-03T08:13:46.071Z,2.90
2018-01-03T08:14:19.986Z,3.28
2018-01-03T08:14:53.929Z,3.40
2018-01-03T08:15:27.912Z,3.22
2018-01-03T08:16:01.837Z,3.00
2018-01-03T08:16:36.434Z,2.83
2018-01-03T08:17:10.339Z,3.58
2018-01-03T08:17:44.180Z,3.50
2018-01-03T08:18:18.075Z,3.20
2018-01-03T08:18:51.916Z,2.90
2018-01-03T08:19:25.866Z,3.25
2018-01-03T08:19:59.836Z,2.70
2018-01-03T08:20:33.735Z,3.28
2018-01-03T08:21:07.755Z,3.17
2018-01-03T08:21:41.650Z,3.35
2018-01-03T08:22:15.518Z,3.05
2018-01-03T08:22:49.411Z,3.17
2018-01-03T08:23:23.313Z,3.00
2018-01-03T08:23:57.568Z,3.10
2018-01-03T08:24:39.373Z,3.62
2018-01-03T08:25:14.086Z,3.47
2018-01-03T08:25:48.009Z,3.67
2018-01-03T08:26:22.574Z,3.37
2018-01-03T08:30:50.002Z,2.65
2018-01-03T08:31:27.626Z,3.28
2018-01-03T08:32:19.906Z,3.25